sensor_id;sensor_type;location;lat;lon;timestamp;P1;durP1;ratioP1;P2;durP2;ratioP2
12433;SDS011;6281;49.038;8.372;2023-03-23T00:00:49;1.83;;;0.80;;
12433;SDS011;6281;49.038;8.372;2023-03-23T00:03:15;2.10;;;0.97;;
12433;SDS011;6281;49.038;8.372;2023-03-23T00:05:43;2.93;;;0.90;;
12433;SDS011;6281;49.038;8.372;2023-03-23T00:08:16;1.00;;;0.90;;
12433;SDS011;6281;49.038;8.372;2023-03-23T00:10:47;2.10;;;0.93;;
12433;SDS011;6281;49.038;8.372;2023-03-23T00:13:17;1.10;;;1.00;;
12433;SDS011;6281;49.038;8.372;2023-03-23T00:15:45;1.13;;;0.83;;
12433;SDS011;6281;49.038;8.372;2023-03-23T00:18:13;1.27;;;1.10;;
12433;SDS011;6281;49.038;8.372;2023-03-23T00:20:46;2.43;;;0.90;;
12433;SDS011;6281;49.038;8.372;2023-03-23T00:23:14;1.30;;;0.90;;
12433;SDS011;6281;49.038;8.372;2023-03-23T00:25:45;1.17;;;0.80;;
12433;SDS011;6281;49.038;8.372;2023-03-23T00:28:14;2.23;;;1.20;;
12433;SDS011;6281;49.038;8.372;2023-03-23T00:30:42;1.33;;;0.80;;
12433;SDS011;6281;49.038;8.372;2023-03-23T00:33:10;1.43;;;1.00;;
12433;SDS011;6281;49.038;8.372;2023-03-23T00:35:38;1.43;;;0.90;;
12433;SDS011;6281;49.038;8.372;2023-03-23T00:38:06;1.00;;;0.90;;
12433;SDS011;6281;49.038;8.372;2023-03-23T00:40:33;0.90;;;0.90;;
12433;SDS011;6281;49.038;8.372;2023-03-23T00:43:03;1.00;;;0.90;;
12433;SDS011;6281;49.038;8.372;2023-03-23T00:45:30;1.63;;;1.13;;
12433;SDS011;6281;49.038;8.372;2023-03-23T00:48:01;1.00;;;0.90;;
12433;SDS011;6281;49.038;8.372;2023-03-23T00:50:29;1.30;;;0.80;;
12433;SDS011;6281;49.038;8.372;2023-03-23T00:52:56;1.20;;;0.93;;
12433;SDS011;6281;49.038;8.372;2023-03-23T00:55:24;2.53;;;0.90;;
12433;SDS011;6281;49.038;8.372;2023-03-23T00:57:51;1.83;;;1.10;;
12433;SDS011;6281;49.038;8.372;2023-03-23T01:00:20;2.77;;;1.10;;
12433;SDS011;6281;49.038;8.372;2023-03-23T01:02:48;2.77;;;0.83;;
12433;SDS011;6281;49.038;8.372;2023-03-23T01:05:16;3.30;;;1.20;;
12433;SDS011;6281;49.038;8.372;2023-03-23T01:07:44;0.87;;;0.77;;
12433;SDS011;6281;49.038;8.372;2023-03-23T01:10:12;0.80;;;0.80;;
12433;SDS011;6281;49.038;8.372;2023-03-23T01:12:41;1.17;;;0.90;;
12433;SDS011;6281;49.038;8.372;2023-03-23T01:15:09;1.47;;;1.00;;
12433;SDS011;6281;49.038;8.372;2023-03-23T01:17:41;1.00;;;0.90;;
12433;SDS011;6281;49.038;8.372;2023-03-23T01:20:08;1.60;;;1.20;;
12433;SDS011;6281;49.038;8.372;2023-03-23T01:22:35;1.73;;;1.20;;
12433;SDS011;6281;49.038;8.372;2023-03-23T01:25:03;1.37;;;1.10;;
12433;SDS011;6281;49.038;8.372;2023-03-23T01:27:30;2.70;;;1.40;;
12433;SDS011;6281;49.038;8.372;2023-03-23T01:29:57;7.17;;;1.20;;
12433;SDS011;6281;49.038;8.372;2023-03-23T01:32:25;1.80;;;1.20;;
12433;SDS011;6281;49.038;8.372;2023-03-23T01:34:53;1.70;;;1.10;;
12433;SDS011;6281;49.038;8.372;2023-03-23T01:37:20;1.73;;;1.40;;
12433;SDS011;6281;49.038;8.372;2023-03-23T01:39:51;1.73;;;1.30;;
12433;SDS011;6281;49.038;8.372;2023-03-23T01:42:20;1.40;;;1.20;;
12433;SDS011;6281;49.038;8.372;2023-03-23T01:47:52;1.37;;;1.17;;
12433;SDS011;6281;49.038;8.372;2023-03-23T01:50:25;2.30;;;1.00;;
12433;SDS011;6281;49.038;8.372;2023-03-23T01:52:54;1.93;;;1.30;;
12433;SDS011;6281;49.038;8.372;2023-03-23T01:55:23;2.70;;;1.10;;
12433;SDS011;6281;49.038;8.372;2023-03-23T01:57:52;1.53;;;1.17;;
12433;SDS011;6281;49.038;8.372;2023-03-23T02:00:21;1.63;;;1.30;;
12433;SDS011;6281;49.038;8.372;2023-03-23T02:02:48;1.40;;;1.30;;
12433;SDS011;6281;49.038;8.372;2023-03-23T02:05:18;1.10;;;1.00;;
12433;SDS011;6281;49.038;8.372;2023-03-23T02:07:50;1.70;;;1.40;;
12433;SDS011;6281;49.038;8.372;2023-03-23T02:10:19;1.23;;;1.13;;
12433;SDS011;6281;49.038;8.372;2023-03-23T02:12:46;2.07;;;1.23;;
12433;SDS011;6281;49.038;8.372;2023-03-23T02:15:13;4.03;;;1.43;;
12433;SDS011;6281;49.038;8.372;2023-03-23T02:17:41;1.63;;;1.13;;
12433;SDS011;6281;49.038;8.372;2023-03-23T02:20:23;3.47;;;1.20;;
12433;SDS011;6281;49.038;8.372;2023-03-23T02:26:08;2.47;;;1.20;;
12433;SDS011;6281;49.038;8.372;2023-03-23T02:28:48;1.10;;;1.00;;
12433;SDS011;6281;49.038;8.372;2023-03-23T02:31:28;1.17;;;1.00;;
12433;SDS011;6281;49.038;8.372;2023-03-23T02:34:07;3.00;;;1.23;;
12433;SDS011;6281;49.038;8.372;2023-03-23T02:36:39;2.30;;;1.40;;
12433;SDS011;6281;49.038;8.372;2023-03-23T02:39:12;1.10;;;1.00;;
12433;SDS011;6281;49.038;8.372;2023-03-23T02:41:45;2.67;;;1.30;;
12433;SDS011;6281;49.038;8.372;2023-03-23T02:44:15;1.80;;;1.10;;
12433;SDS011;6281;49.038;8.372;2023-03-23T02:46:43;2.20;;;1.20;;
12433;SDS011;6281;49.038;8.372;2023-03-23T02:49:12;1.87;;;1.20;;
12433;SDS011;6281;49.038;8.372;2023-03-23T02:51:42;1.63;;;1.03;;
12433;SDS011;6281;49.038;8.372;2023-03-23T02:54:12;2.70;;;1.40;;
12433;SDS011;6281;49.038;8.372;2023-03-23T02:56:41;1.37;;;1.13;;
12433;SDS011;6281;49.038;8.372;2023-03-23T02:59:08;3.13;;;1.30;;
12433;SDS011;6281;49.038;8.372;2023-03-23T03:01:50;1.20;;;1.00;;
12433;SDS011;6281;49.038;8.372;2023-03-23T03:04:38;1.50;;;1.40;;
12433;SDS011;6281;49.038;8.372;2023-03-23T03:07:17;0.97;;;0.90;;
12433;SDS011;6281;49.038;8.372;2023-03-23T03:09:56;1.20;;;1.10;;
12433;SDS011;6281;49.038;8.372;2023-03-23T03:12:30;1.60;;;1.00;;
12433;SDS011;6281;49.038;8.372;2023-03-23T03:15:06;1.63;;;1.43;;
12433;SDS011;6281;49.038;8.372;2023-03-23T03:17:40;1.20;;;1.10;;
12433;SDS011;6281;49.038;8.372;2023-03-23T03:20:11;1.83;;;1.50;;
12433;SDS011;6281;49.038;8.372;2023-03-23T03:22:40;1.73;;;1.40;;
12433;SDS011;6281;49.038;8.372;2023-03-23T03:25:09;1.20;;;1.10;;
12433;SDS011;6281;49.038;8.372;2023-03-23T03:27:39;1.50;;;1.10;;
12433;SDS011;6281;49.038;8.372;2023-03-23T03:30:07;1.50;;;1.33;;
12433;SDS011;6281;49.038;8.372;2023-03-23T03:32:39;1.77;;;1.30;;
12433;SDS011;6281;49.038;8.372;2023-03-23T03:35:12;2.67;;;1.13;;
12433;SDS011;6281;49.038;8.372;2023-03-23T03:37:40;3.57;;;1.20;;
12433;SDS011;6281;49.038;8.372;2023-03-23T03:40:09;2.50;;;1.23;;
12433;SDS011;6281;49.038;8.372;2023-03-23T03:42:38;3.20;;;1.10;;
12433;SDS011;6281;49.038;8.372;2023-03-23T03:45:06;3.97;;;1.30;;
12433;SDS011;6281;49.038;8.372;2023-03-23T03:47:34;3.10;;;1.20;;
12433;SDS011;6281;49.038;8.372;2023-03-23T03:50:01;1.50;;;1.13;;
12433;SDS011;6281;49.038;8.372;2023-03-23T03:52:30;2.20;;;1.30;;
12433;SDS011;6281;49.038;8.372;2023-03-23T03:54:57;1.13;;;1.03;;
12433;SDS011;6281;49.038;8.372;2023-03-23T03:57:24;1.93;;;1.30;;
12433;SDS011;6281;49.038;8.372;2023-03-23T03:59:51;2.97;;;1.20;;
12433;SDS011;6281;49.038;8.372;2023-03-23T04:02:18;2.23;;;1.30;;
12433;SDS011;6281;49.038;8.372;2023-03-23T04:04:46;2.00;;;1.40;;
12433;SDS011;6281;49.038;8.372;2023-03-23T04:07:13;2.00;;;1.40;;
12433;SDS011;6281;49.038;8.372;2023-03-23T04:09:42;2.10;;;1.20;;
12433;SDS011;6281;49.038;8.372;2023-03-23T04:12:11;3.37;;;1.10;;
12433;SDS011;6281;49.038;8.372;2023-03-23T04:14:38;1.93;;;1.60;;
12433;SDS011;6281;49.038;8.372;2023-03-23T04:17:05;2.47;;;1.37;;
12433;SDS011;6281;49.038;8.372;2023-03-23T04:19:34;2.13;;;1.30;;
12433;SDS011;6281;49.038;8.372;2023-03-23T04:22:02;2.00;;;1.50;;
12433;SDS011;6281;49.038;8.372;2023-03-23T04:24:29;1.30;;;1.20;;
12433;SDS011;6281;49.038;8.372;2023-03-23T04:26:59;2.50;;;1.40;;
12433;SDS011;6281;49.038;8.372;2023-03-23T04:29:27;2.27;;;1.20;;
12433;SDS011;6281;49.038;8.372;2023-03-23T04:31:55;1.53;;;1.23;;
12433;SDS011;6281;49.038;8.372;2023-03-23T04:34:22;2.37;;;1.23;;
12433;SDS011;6281;49.038;8.372;2023-03-23T04:36:49;1.90;;;1.33;;
12433;SDS011;6281;49.038;8.372;2023-03-23T04:39:16;1.90;;;1.40;;
12433;SDS011;6281;49.038;8.372;2023-03-23T04:41:43;2.00;;;1.30;;
12433;SDS011;6281;49.038;8.372;2023-03-23T04:44:13;1.60;;;1.27;;
12433;SDS011;6281;49.038;8.372;2023-03-23T04:46:42;2.20;;;1.50;;
12433;SDS011;6281;49.038;8.372;2023-03-23T04:49:14;1.40;;;1.30;;
12433;SDS011;6281;49.038;8.372;2023-03-23T04:51:46;2.37;;;1.40;;
12433;SDS011;6281;49.038;8.372;2023-03-23T04:54:13;2.93;;;1.13;;
12433;SDS011;6281;49.038;8.372;2023-03-23T04:56:40;1.47;;;1.37;;
12433;SDS011;6281;49.038;8.372;2023-03-23T04:59:07;1.93;;;1.40;;
12433;SDS011;6281;49.038;8.372;2023-03-23T05:01:36;2.00;;;1.30;;
12433;SDS011;6281;49.038;8.372;2023-03-23T05:04:03;1.37;;;1.10;;
12433;SDS011;6281;49.038;8.372;2023-03-23T05:06:31;2.47;;;1.50;;
12433;SDS011;6281;49.038;8.372;2023-03-23T05:08:57;4.67;;;1.77;;
12433;SDS011;6281;49.038;8.372;2023-03-23T05:11:24;2.40;;;1.40;;
12433;SDS011;6281;49.038;8.372;2023-03-23T05:13:51;2.60;;;1.40;;
12433;SDS011;6281;49.038;8.372;2023-03-23T05:16:18;1.47;;;1.27;;
12433;SDS011;6281;49.038;8.372;2023-03-23T05:18:47;2.00;;;1.53;;
12433;SDS011;6281;49.038;8.372;2023-03-23T05:21:14;2.87;;;1.57;;
12433;SDS011;6281;49.038;8.372;2023-03-23T05:23:40;1.27;;;1.17;;
12433;SDS011;6281;49.038;8.372;2023-03-23T05:26:07;2.10;;;1.40;;
12433;SDS011;6281;49.038;8.372;2023-03-23T05:28:34;2.27;;;1.83;;
12433;SDS011;6281;49.038;8.372;2023-03-23T05:31:02;2.53;;;1.40;;
12433;SDS011;6281;49.038;8.372;2023-03-23T05:33:29;1.57;;;1.40;;
12433;SDS011;6281;49.038;8.372;2023-03-23T05:35:58;7.03;;;1.83;;
12433;SDS011;6281;49.038;8.372;2023-03-23T05:38:25;2.53;;;1.50;;
12433;SDS011;6281;49.038;8.372;2023-03-23T05:43:52;2.47;;;1.47;;
12433;SDS011;6281;49.038;8.372;2023-03-23T05:46:19;4.97;;;1.30;;
12433;SDS011;6281;49.038;8.372;2023-03-23T05:48:46;1.50;;;1.30;;
12433;SDS011;6281;49.038;8.372;2023-03-23T05:51:14;2.03;;;1.43;;
12433;SDS011;6281;49.038;8.372;2023-03-23T05:53:41;2.50;;;1.60;;
12433;SDS011;6281;49.038;8.372;2023-03-23T05:56:07;2.20;;;1.60;;
12433;SDS011;6281;49.038;8.372;2023-03-23T05:58:34;3.03;;;1.67;;
12433;SDS011;6281;49.038;8.372;2023-03-23T06:01:01;1.87;;;1.47;;
12433;SDS011;6281;49.038;8.372;2023-03-23T06:03:32;2.27;;;1.47;;
12433;SDS011;6281;49.038;8.372;2023-03-23T06:06:00;2.57;;;1.57;;
12433;SDS011;6281;49.038;8.372;2023-03-23T06:08:29;2.50;;;1.57;;
12433;SDS011;6281;49.038;8.372;2023-03-23T06:10:58;1.90;;;1.30;;
12433;SDS011;6281;49.038;8.372;2023-03-23T06:13:24;2.90;;;1.43;;
12433;SDS011;6281;49.038;8.372;2023-03-23T06:15:54;3.63;;;1.50;;
12433;SDS011;6281;49.038;8.372;2023-03-23T06:18:22;2.47;;;1.90;;
12433;SDS011;6281;49.038;8.372;2023-03-23T06:20:50;2.10;;;1.70;;
12433;SDS011;6281;49.038;8.372;2023-03-23T06:23:17;3.93;;;1.77;;
12433;SDS011;6281;49.038;8.372;2023-03-23T06:25:45;3.00;;;1.90;;
12433;SDS011;6281;49.038;8.372;2023-03-23T06:28:12;2.93;;;1.83;;
12433;SDS011;6281;49.038;8.372;2023-03-23T06:30:40;1.97;;;1.40;;
12433;SDS011;6281;49.038;8.372;2023-03-23T06:33:07;3.97;;;1.47;;
12433;SDS011;6281;49.038;8.372;2023-03-23T06:35:34;5.00;;;1.57;;
12433;SDS011;6281;49.038;8.372;2023-03-23T06:38:01;3.90;;;1.60;;
12433;SDS011;6281;49.038;8.372;2023-03-23T06:40:29;1.80;;;1.53;;
12433;SDS011;6281;49.038;8.372;2023-03-23T06:42:57;5.03;;;1.60;;
12433;SDS011;6281;49.038;8.372;2023-03-23T06:45:25;2.83;;;1.80;;
12433;SDS011;6281;49.038;8.372;2023-03-23T06:47:52;3.30;;;1.90;;
12433;SDS011;6281;49.038;8.372;2023-03-23T06:50:19;3.70;;;2.03;;
12433;SDS011;6281;49.038;8.372;2023-03-23T06:52:47;2.77;;;2.10;;
12433;SDS011;6281;49.038;8.372;2023-03-23T06:55:15;3.73;;;2.07;;
12433;SDS011;6281;49.038;8.372;2023-03-23T06:57:43;3.87;;;2.30;;
12433;SDS011;6281;49.038;8.372;2023-03-23T07:00:12;4.60;;;2.17;;
12433;SDS011;6281;49.038;8.372;2023-03-23T07:02:40;4.73;;;1.77;;
12433;SDS011;6281;49.038;8.372;2023-03-23T07:05:07;2.63;;;1.90;;
12433;SDS011;6281;49.038;8.372;2023-03-23T07:07:35;2.77;;;1.60;;
12433;SDS011;6281;49.038;8.372;2023-03-23T07:10:02;2.27;;;1.60;;
12433;SDS011;6281;49.038;8.372;2023-03-23T07:12:30;1.70;;;1.57;;
12433;SDS011;6281;49.038;8.372;2023-03-23T07:14:58;1.90;;;1.33;;
12433;SDS011;6281;49.038;8.372;2023-03-23T07:17:26;2.17;;;1.50;;
12433;SDS011;6281;49.038;8.372;2023-03-23T07:19:53;2.37;;;1.57;;
12433;SDS011;6281;49.038;8.372;2023-03-23T07:22:20;3.77;;;1.70;;
12433;SDS011;6281;49.038;8.372;2023-03-23T07:24:47;5.13;;;1.77;;
12433;SDS011;6281;49.038;8.372;2023-03-23T07:27:14;1.43;;;1.17;;
12433;SDS011;6281;49.038;8.372;2023-03-23T07:29:41;4.03;;;1.50;;
12433;SDS011;6281;49.038;8.372;2023-03-23T07:32:10;2.73;;;2.10;;
12433;SDS011;6281;49.038;8.372;2023-03-23T07:34:39;3.93;;;1.80;;
12433;SDS011;6281;49.038;8.372;2023-03-23T07:37:06;1.97;;;1.67;;
12433;SDS011;6281;49.038;8.372;2023-03-23T07:39:33;3.40;;;1.70;;
12433;SDS011;6281;49.038;8.372;2023-03-23T07:42:02;1.93;;;1.70;;
12433;SDS011;6281;49.038;8.372;2023-03-23T07:44:29;1.93;;;1.57;;
12433;SDS011;6281;49.038;8.372;2023-03-23T07:46:56;2.67;;;2.10;;
12433;SDS011;6281;49.038;8.372;2023-03-23T07:49:25;3.33;;;2.00;;
12433;SDS011;6281;49.038;8.372;2023-03-23T07:51:53;3.60;;;1.93;;
12433;SDS011;6281;49.038;8.372;2023-03-23T07:54:20;2.87;;;1.80;;
12433;SDS011;6281;49.038;8.372;2023-03-23T07:56:47;1.93;;;1.67;;
12433;SDS011;6281;49.038;8.372;2023-03-23T07:59:14;2.83;;;1.70;;
12433;SDS011;6281;49.038;8.372;2023-03-23T08:01:42;4.17;;;2.03;;
12433;SDS011;6281;49.038;8.372;2023-03-23T08:04:09;2.70;;;1.30;;
12433;SDS011;6281;49.038;8.372;2023-03-23T08:06:36;2.53;;;1.50;;
12433;SDS011;6281;49.038;8.372;2023-03-23T08:09:06;5.63;;;1.60;;
12433;SDS011;6281;49.038;8.372;2023-03-23T08:11:33;1.77;;;1.30;;
12433;SDS011;6281;49.038;8.372;2023-03-23T08:14:00;2.00;;;1.10;;
12433;SDS011;6281;49.038;8.372;2023-03-23T08:16:28;2.87;;;1.20;;
12433;SDS011;6281;49.038;8.372;2023-03-23T08:18:55;3.60;;;1.43;;
12433;SDS011;6281;49.038;8.372;2023-03-23T08:21:22;3.20;;;1.90;;
12433;SDS011;6281;49.038;8.372;2023-03-23T08:23:50;2.53;;;1.50;;
12433;SDS011;6281;49.038;8.372;2023-03-23T08:26:19;4.67;;;1.50;;
12433;SDS011;6281;49.038;8.372;2023-03-23T08:28:46;2.80;;;1.33;;
12433;SDS011;6281;49.038;8.372;2023-03-23T08:31:13;2.13;;;1.47;;
12433;SDS011;6281;49.038;8.372;2023-03-23T08:33:42;1.60;;;1.20;;
12433;SDS011;6281;49.038;8.372;2023-03-23T08:36:08;1.43;;;1.13;;
12433;SDS011;6281;49.038;8.372;2023-03-23T08:38:35;4.60;;;1.90;;
12433;SDS011;6281;49.038;8.372;2023-03-23T08:41:03;2.20;;;1.60;;
12433;SDS011;6281;49.038;8.372;2023-03-23T08:43:34;1.57;;;1.10;;
12433;SDS011;6281;49.038;8.372;2023-03-23T08:46:01;2.23;;;1.50;;
12433;SDS011;6281;49.038;8.372;2023-03-23T08:48:31;3.37;;;1.40;;
12433;SDS011;6281;49.038;8.372;2023-03-23T08:51:00;1.83;;;1.30;;
12433;SDS011;6281;49.038;8.372;2023-03-23T08:53:27;2.40;;;1.40;;
12433;SDS011;6281;49.038;8.372;2023-03-23T08:55:56;1.40;;;0.97;;
12433;SDS011;6281;49.038;8.372;2023-03-23T08:58:22;2.77;;;1.30;;
12433;SDS011;6281;49.038;8.372;2023-03-23T09:00:50;1.97;;;1.40;;
12433;SDS011;6281;49.038;8.372;2023-03-23T09:03:17;2.73;;;1.43;;
12433;SDS011;6281;49.038;8.372;2023-03-23T09:05:44;1.47;;;1.13;;
12433;SDS011;6281;49.038;8.372;2023-03-23T09:08:11;1.90;;;1.30;;
12433;SDS011;6281;49.038;8.372;2023-03-23T09:10:39;2.23;;;1.10;;
12433;SDS011;6281;49.038;8.372;2023-03-23T09:13:06;1.10;;;0.90;;
12433;SDS011;6281;49.038;8.372;2023-03-23T09:15:33;2.53;;;1.23;;
12433;SDS011;6281;49.038;8.372;2023-03-23T09:18:01;1.90;;;1.37;;
12433;SDS011;6281;49.038;8.372;2023-03-23T09:20:29;2.07;;;1.47;;
12433;SDS011;6281;49.038;8.372;2023-03-23T09:22:56;1.63;;;1.10;;
12433;SDS011;6281;49.038;8.372;2023-03-23T09:25:24;6.37;;;2.03;;
12433;SDS011;6281;49.038;8.372;2023-03-23T09:27:53;4.20;;;1.70;;
12433;SDS011;6281;49.038;8.372;2023-03-23T09:30:23;1.80;;;1.10;;
12433;SDS011;6281;49.038;8.372;2023-03-23T09:32:52;3.00;;;1.47;;
12433;SDS011;6281;49.038;8.372;2023-03-23T09:35:21;1.83;;;1.43;;
12433;SDS011;6281;49.038;8.372;2023-03-23T09:37:49;4.20;;;1.43;;
12433;SDS011;6281;49.038;8.372;2023-03-23T09:40:18;2.97;;;1.53;;
12433;SDS011;6281;49.038;8.372;2023-03-23T09:45:41;1.67;;;1.33;;
12433;SDS011;6281;49.038;8.372;2023-03-23T09:48:19;2.37;;;1.30;;
12433;SDS011;6281;49.038;8.372;2023-03-23T09:50:57;2.00;;;1.10;;
12433;SDS011;6281;49.038;8.372;2023-03-23T09:53:30;1.00;;;0.80;;
12433;SDS011;6281;49.038;8.372;2023-03-23T09:56:01;1.87;;;1.07;;
12433;SDS011;6281;49.038;8.372;2023-03-23T09:58:35;1.93;;;1.17;;
12433;SDS011;6281;49.038;8.372;2023-03-23T10:01:08;5.33;;;1.53;;
12433;SDS011;6281;49.038;8.372;2023-03-23T10:03:41;5.97;;;1.27;;
12433;SDS011;6281;49.038;8.372;2023-03-23T10:06:11;2.40;;;1.10;;
12433;SDS011;6281;49.038;8.372;2023-03-23T10:08:43;1.80;;;1.30;;
12433;SDS011;6281;49.038;8.372;2023-03-23T10:11:17;2.70;;;1.40;;
12433;SDS011;6281;49.038;8.372;2023-03-23T10:13:57;1.17;;;0.90;;
12433;SDS011;6281;49.038;8.372;2023-03-23T10:16:46;1.83;;;1.07;;
12433;SDS011;6281;49.038;8.372;2023-03-23T10:19:20;1.30;;;1.10;;
12433;SDS011;6281;49.038;8.372;2023-03-23T10:21:56;4.10;;;1.10;;
12433;SDS011;6281;49.038;8.372;2023-03-23T10:24:29;1.33;;;0.90;;
12433;SDS011;6281;49.038;8.372;2023-03-23T10:27:02;1.03;;;0.70;;
12433;SDS011;6281;49.038;8.372;2023-03-23T10:29:39;1.40;;;1.17;;
12433;SDS011;6281;49.038;8.372;2023-03-23T10:32:13;1.17;;;1.00;;
12433;SDS011;6281;49.038;8.372;2023-03-23T10:34:44;1.60;;;1.20;;
12433;SDS011;6281;49.038;8.372;2023-03-23T10:37:18;2.50;;;1.30;;
12433;SDS011;6281;49.038;8.372;2023-03-23T10:39:49;2.10;;;1.27;;
12433;SDS011;6281;49.038;8.372;2023-03-23T10:42:24;7.23;;;1.23;;
12433;SDS011;6281;49.038;8.372;2023-03-23T10:44:53;2.07;;;1.10;;
12433;SDS011;6281;49.038;8.372;2023-03-23T10:47:21;2.27;;;1.30;;
12433;SDS011;6281;49.038;8.372;2023-03-23T10:49:50;6.23;;;1.90;;
12433;SDS011;6281;49.038;8.372;2023-03-23T10:52:25;2.90;;;1.60;;
12433;SDS011;6281;49.038;8.372;2023-03-23T10:54:57;2.67;;;1.33;;
12433;SDS011;6281;49.038;8.372;2023-03-23T10:57:28;3.00;;;1.47;;
12433;SDS011;6281;49.038;8.372;2023-03-23T10:59:59;1.80;;;1.40;;
12433;SDS011;6281;49.038;8.372;2023-03-23T11:02:31;1.10;;;1.00;;
12433;SDS011;6281;49.038;8.372;2023-03-23T11:04:59;1.30;;;1.20;;
12433;SDS011;6281;49.038;8.372;2023-03-23T11:07:31;2.70;;;1.07;;
12433;SDS011;6281;49.038;8.372;2023-03-23T11:10:04;2.13;;;1.30;;
12433;SDS011;6281;49.038;8.372;2023-03-23T11:12:34;2.17;;;1.30;;
12433;SDS011;6281;49.038;8.372;2023-03-23T11:15:16;1.60;;;1.23;;
12433;SDS011;6281;49.038;8.372;2023-03-23T11:17:54;1.70;;;1.30;;
12433;SDS011;6281;49.038;8.372;2023-03-23T11:20:23;2.00;;;1.40;;
12433;SDS011;6281;49.038;8.372;2023-03-23T11:22:53;2.40;;;1.47;;
12433;SDS011;6281;49.038;8.372;2023-03-23T11:25:20;1.67;;;1.30;;
12433;SDS011;6281;49.038;8.372;2023-03-23T11:27:47;2.13;;;1.67;;
12433;SDS011;6281;49.038;8.372;2023-03-23T11:30:19;3.30;;;1.40;;
12433;SDS011;6281;49.038;8.372;2023-03-23T11:32:52;2.30;;;1.70;;
12433;SDS011;6281;49.038;8.372;2023-03-23T11:35:21;2.90;;;1.60;;
12433;SDS011;6281;49.038;8.372;2023-03-23T11:37:53;2.77;;;1.50;;
12433;SDS011;6281;49.038;8.372;2023-03-23T11:43:19;3.30;;;1.80;;
12433;SDS011;6281;49.038;8.372;2023-03-23T11:45:50;3.47;;;1.50;;
12433;SDS011;6281;49.038;8.372;2023-03-23T11:48:26;2.10;;;1.67;;
12433;SDS011;6281;49.038;8.372;2023-03-23T11:51:01;1.40;;;1.30;;
12433;SDS011;6281;49.038;8.372;2023-03-23T11:53:34;3.13;;;1.40;;
12433;SDS011;6281;49.038;8.372;2023-03-23T11:56:14;2.77;;;1.20;;
12433;SDS011;6281;49.038;8.372;2023-03-23T11:58:49;1.77;;;1.20;;
12433;SDS011;6281;49.038;8.372;2023-03-23T12:01:20;2.40;;;1.20;;
12433;SDS011;6281;49.038;8.372;2023-03-23T12:04:21;1.80;;;1.13;;
12433;SDS011;6281;49.038;8.372;2023-03-23T12:10:01;1.87;;;1.30;;
12433;SDS011;6281;49.038;8.372;2023-03-23T12:12:38;1.83;;;1.20;;
12433;SDS011;6281;49.038;8.372;2023-03-23T12:15:14;2.60;;;1.00;;
12433;SDS011;6281;49.038;8.372;2023-03-23T12:17:54;2.17;;;0.90;;
12433;SDS011;6281;49.038;8.372;2023-03-23T12:20:29;1.47;;;1.10;;
12433;SDS011;6281;49.038;8.372;2023-03-23T12:23:17;1.80;;;0.83;;
12433;SDS011;6281;49.038;8.372;2023-03-23T12:29:02;2.00;;;1.10;;
12433;SDS011;6281;49.038;8.372;2023-03-23T12:31:49;1.03;;;0.80;;
12433;SDS011;6281;49.038;8.372;2023-03-23T12:34:26;1.03;;;0.70;;
12433;SDS011;6281;49.038;8.372;2023-03-23T12:37:02;1.43;;;0.93;;
12433;SDS011;6281;49.038;8.372;2023-03-23T12:39:46;1.47;;;1.10;;
12433;SDS011;6281;49.038;8.372;2023-03-23T12:42:22;1.13;;;0.97;;
12433;SDS011;6281;49.038;8.372;2023-03-23T12:45:00;2.17;;;1.10;;
12433;SDS011;6281;49.038;8.372;2023-03-23T12:47:39;1.10;;;1.00;;
12433;SDS011;6281;49.038;8.372;2023-03-23T12:50:11;0.80;;;0.70;;
12433;SDS011;6281;49.038;8.372;2023-03-23T12:52:45;1.83;;;0.83;;
12433;SDS011;6281;49.038;8.372;2023-03-23T12:55:18;1.13;;;0.80;;
12433;SDS011;6281;49.038;8.372;2023-03-23T12:57:49;3.03;;;1.07;;
12433;SDS011;6281;49.038;8.372;2023-03-23T13:00:24;1.87;;;1.07;;
12433;SDS011;6281;49.038;8.372;2023-03-23T13:02:57;1.73;;;1.10;;
12433;SDS011;6281;49.038;8.372;2023-03-23T13:05:36;2.03;;;0.90;;
12433;SDS011;6281;49.038;8.372;2023-03-23T13:08:11;2.87;;;0.93;;
12433;SDS011;6281;49.038;8.372;2023-03-23T13:10:42;1.40;;;1.00;;
12433;SDS011;6281;49.038;8.372;2023-03-23T13:13:13;1.70;;;1.40;;
12433;SDS011;6281;49.038;8.372;2023-03-23T13:15:46;2.63;;;1.30;;
12433;SDS011;6281;49.038;8.372;2023-03-23T13:18:24;2.17;;;1.20;;
12433;SDS011;6281;49.038;8.372;2023-03-23T13:21:01;1.53;;;1.07;;
12433;SDS011;6281;49.038;8.372;2023-03-23T13:23:34;1.60;;;1.20;;
12433;SDS011;6281;49.038;8.372;2023-03-23T13:26:05;2.63;;;1.10;;
12433;SDS011;6281;49.038;8.372;2023-03-23T13:28:47;2.03;;;1.00;;
12433;SDS011;6281;49.038;8.372;2023-03-23T13:31:19;1.87;;;1.30;;
12433;SDS011;6281;49.038;8.372;2023-03-23T13:33:51;1.43;;;1.07;;
12433;SDS011;6281;49.038;8.372;2023-03-23T13:36:26;2.90;;;1.40;;
12433;SDS011;6281;49.038;8.372;2023-03-23T13:38:55;1.13;;;1.00;;
12433;SDS011;6281;49.038;8.372;2023-03-23T13:41:25;1.93;;;1.00;;
12433;SDS011;6281;49.038;8.372;2023-03-23T13:44:04;1.10;;;1.00;;
12433;SDS011;6281;49.038;8.372;2023-03-23T13:46:42;2.60;;;1.20;;
12433;SDS011;6281;49.038;8.372;2023-03-23T13:49:20;1.83;;;1.20;;
12433;SDS011;6281;49.038;8.372;2023-03-23T13:54:43;1.30;;;1.13;;
12433;SDS011;6281;49.038;8.372;2023-03-23T13:57:24;2.30;;;1.30;;
12433;SDS011;6281;49.038;8.372;2023-03-23T14:00:09;2.20;;;1.40;;
12433;SDS011;6281;49.038;8.372;2023-03-23T14:02:57;2.20;;;1.30;;
12433;SDS011;6281;49.038;8.372;2023-03-23T14:05:35;4.20;;;1.47;;
12433;SDS011;6281;49.038;8.372;2023-03-23T14:08:11;1.53;;;1.30;;
12433;SDS011;6281;49.038;8.372;2023-03-23T14:10:40;2.27;;;1.27;;
12433;SDS011;6281;49.038;8.372;2023-03-23T14:13:11;2.67;;;1.50;;
12433;SDS011;6281;49.038;8.372;2023-03-23T14:15:44;1.90;;;1.50;;
12433;SDS011;6281;49.038;8.372;2023-03-23T14:18:23;2.27;;;1.13;;
12433;SDS011;6281;49.038;8.372;2023-03-23T14:20:53;2.20;;;1.30;;
12433;SDS011;6281;49.038;8.372;2023-03-23T14:23:21;1.40;;;1.30;;
12433;SDS011;6281;49.038;8.372;2023-03-23T14:25:56;1.93;;;1.47;;
12433;SDS011;6281;49.038;8.372;2023-03-23T14:28:30;1.70;;;1.40;;
12433;SDS011;6281;49.038;8.372;2023-03-23T14:30:59;3.43;;;1.53;;
12433;SDS011;6281;49.038;8.372;2023-03-23T14:33:27;1.60;;;1.30;;
12433;SDS011;6281;49.038;8.372;2023-03-23T14:35:56;2.07;;;1.50;;
12433;SDS011;6281;49.038;8.372;2023-03-23T14:38:24;2.47;;;1.50;;
12433;SDS011;6281;49.038;8.372;2023-03-23T14:40:59;2.73;;;1.70;;
12433;SDS011;6281;49.038;8.372;2023-03-23T14:43:27;3.03;;;1.70;;
12433;SDS011;6281;49.038;8.372;2023-03-23T14:45:56;2.70;;;1.90;;
12433;SDS011;6281;49.038;8.372;2023-03-23T14:48:27;1.97;;;1.50;;
12433;SDS011;6281;49.038;8.372;2023-03-23T14:50:56;2.43;;;1.67;;
12433;SDS011;6281;49.038;8.372;2023-03-23T14:53:29;3.27;;;1.83;;
12433;SDS011;6281;49.038;8.372;2023-03-23T14:56:00;1.93;;;1.50;;
12433;SDS011;6281;49.038;8.372;2023-03-23T14:58:30;3.57;;;1.53;;
12433;SDS011;6281;49.038;8.372;2023-03-23T15:00:58;2.43;;;1.70;;
12433;SDS011;6281;49.038;8.372;2023-03-23T15:03:28;2.70;;;1.93;;
12433;SDS011;6281;49.038;8.372;2023-03-23T15:06:01;1.80;;;1.53;;
12433;SDS011;6281;49.038;8.372;2023-03-23T15:08:32;2.40;;;1.83;;
12433;SDS011;6281;49.038;8.372;2023-03-23T15:11:05;3.37;;;1.60;;
12433;SDS011;6281;49.038;8.372;2023-03-23T15:13:34;2.97;;;1.90;;
12433;SDS011;6281;49.038;8.372;2023-03-23T15:16:03;2.63;;;1.80;;
12433;SDS011;6281;49.038;8.372;2023-03-23T15:18:34;4.63;;;1.63;;
12433;SDS011;6281;49.038;8.372;2023-03-23T15:21:09;2.40;;;1.70;;
12433;SDS011;6281;49.038;8.372;2023-03-23T15:23:44;2.47;;;1.60;;
12433;SDS011;6281;49.038;8.372;2023-03-23T15:26:23;1.90;;;1.70;;
12433;SDS011;6281;49.038;8.372;2023-03-23T15:29:00;5.23;;;1.87;;
12433;SDS011;6281;49.038;8.372;2023-03-23T15:31:38;2.20;;;1.90;;
12433;SDS011;6281;49.038;8.372;2023-03-23T15:34:12;3.10;;;1.80;;
12433;SDS011;6281;49.038;8.372;2023-03-23T15:36:55;3.47;;;2.13;;
12433;SDS011;6281;49.038;8.372;2023-03-23T15:39:24;3.20;;;1.83;;
12433;SDS011;6281;49.038;8.372;2023-03-23T15:41:51;4.50;;;1.50;;
12433;SDS011;6281;49.038;8.372;2023-03-23T15:47:18;4.40;;;1.90;;